logo
App data

Labyrinth Simulator

Create your own levels, publish them or download levels from community. Play with your friends or play it alone. Shape the future of Labyrinth Simulator.
Store | Hub | SteamDB | Site
Developer: Phoenix Game and Publisher Studio Publisher: Phoenix Game and Publisher Studio
Genre: Indie, Simulation, Early Access
Languages: English, Turkish
Tags: Early Access (28), Simulation (24), Indie (23), Memes (8), Illuminati (8)
Category: Single-player, Multi-player, Co-op, Steam Trading Cards, Includes level editor
Release date: Sep 21, 2015
Price: $4.99
Old userscore: 57% Owners: 0 .. 20,000
Followers: 184
YouTube stats: 80 views and 4 comments for top 50 videos uploaded last week, 0 new videos uploaded yesterday.

Steam Spy is still in beta, so expect major bugs.

Owners data:

Access restricted.

This feature is only available to users with special access rights. Sorry.

If you want to proceed, you need to register or log in first and then back Steam Spy on Patreon. Look for Indie or Pro pledge.

Don't forget to use the same email as on Steam Spy!

Audience in 2 weeks:

Access restricted.

This feature is only available to users with special access rights. Sorry.

If you want to proceed, you need to register or log in first and then back Steam Spy on Patreon. Look for Indie or Pro pledge.

Don't forget to use the same email as on Steam Spy!

Peak daily concurrent players:

CCU data courtesy of SteamDB. Used with permission.

Hourly concurrent players:

Followers over time

Access restricted.

This feature is only available to users with special access rights. Sorry.

If you want to proceed, you need to register or log in first and then back Steam Spy on Patreon. Look for Indie or Pro pledge.

Don't forget to use the same email as on Steam Spy!

Views for top 50 videos on YouTube for this game:

YouTube's Terms of Service

The views data is based on top 50 videos uploaded last week. Actual number of views might be more than the number shown.

If the game has commonly used word as its name (like "FEAR" or "Volume") its number of Youtube views might be wrong.

Games similar to this one:

# Game Release date
Price
Score rank
(Userscore / Metascore)
Owners
Players
Playtime (Median)
1 RePete Nov 1, 2015 $1.99N/A (N/A)0 .. 20,0000%00:00 (00:00)
2 Love in the Glen Jun 9, 2016 $3.29N/A (N/A)20,000 .. 50,0000%00:00 (00:00)
3 Caravanserail Feb 26, 2016 $2.99N/A (N/A)0 .. 20,0000%00:00 (00:00)
4 One Last Chance Apr 7, 2016 $3.99N/A (N/A)20,000 .. 50,0000%00:00 (00:00)
5 Mind Games Mar 4, 2016 $2.99N/A (N/A)0 .. 20,0000%00:00 (00:00)
6 Reptilian Rebellion Aug 8, 2016 $2.99N/A (N/A)20,000 .. 50,0000%00:00 (00:00)
7 One way to exit Mar 12, 2016 $1.99N/A (N/A)100,000 .. 200,0000%00:00 (00:00)
8 Hyposphere May 5, 2016 $2.99N/A (N/A)200,000 .. 500,0000%00:00 (00:00)
9 Hustle Cat Mar 16, 2016 $19.99N/A (N/A)50,000 .. 100,0000%00:00 (00:00)
10 Broken Dreams Feb 19, 2016 $1.99N/A (N/A)100,000 .. 200,0000%00:00 (00:00)
11 Burst Mar 14, 2016 N/AN/A (N/A)50,000 .. 100,0000%00:00 (00:00)
12 Sophie's Curse Mar 16, 2016 $4.99N/A (N/A)50,000 .. 100,0000%00:00 (00:00)
13 [the Sequence] Mar 30, 2016 $1.99N/A (N/A)0 .. 20,0000%00:00 (00:00)
14 Night Blights Apr 15, 2016 $6.99N/A (N/A)0 .. 20,0000%00:00 (00:00)
15 Forgotten, Not Lost - A Kinetic Novel Apr 2, 2016 $1.99N/A (N/A)20,000 .. 50,0000%00:00 (00:00)
16 XCavalypse Jun 6, 2016 $5.99N/A (N/A)0 .. 20,0000%00:00 (00:00)
17 Melting Hearts: Our Love Will Grow 2 Apr 29, 2016 N/AN/A (N/A)20,000 .. 50,0000%00:00 (00:00)
18 Color Syndrome Jun 20, 2016 $0.99N/A (N/A)50,000 .. 100,0000%00:00 (00:00)
19 Carrie's Order Up! Sep 13, 2016 $2.99N/A (N/A)0 .. 20,0000%00:00 (00:00)
20 Hide and Secret Treasure of the Ages Mar 15, 2007 $2.99N/A (N/A)0 .. 20,0000%00:00 (00:00)
21 Turbo Pug 3D Sep 20, 2016 $1.99N/A (N/A)200,000 .. 500,0000%00:00 (00:00)
22 12 Labours of Hercules V: Kids of Hellas (Platinum Edition) Jun 17, 2016 $2.99N/A (N/A)20,000 .. 50,0000%00:00 (00:00)
23 Archimedes Oct 6, 2016 $2.99N/A (N/A)20,000 .. 50,0000%00:00 (00:00)
24 Beeftacular Aug 26, 2016 $2.99N/A (N/A)20,000 .. 50,0000%00:00 (00:00)
25 Kombine Oct 14, 2016 $0.49N/A (N/A)20,000 .. 50,0000%00:00 (00:00)
26 Clock Simulator Jul 20, 2016 $0.99N/A (N/A)20,000 .. 50,0000%00:00 (00:00)
27 King's Guard TD Jun 8, 2016 $2.99N/A (N/A)100,000 .. 200,0000%00:00 (00:00)
28 Optika Aug 26, 2016 $4.99N/A (N/A)20,000 .. 50,0000%00:00 (00:00)
29 Autumn Sep 23, 2014 $2.99N/A (N/A)50,000 .. 100,0000%00:00 (00:00)
30 Won't You Be My Laser? Sep 2, 2016 $0.99N/A (N/A)0 .. 20,0000%00:00 (00:00)
31 Magma Tsunami Jun 1, 2016 $0.99N/A (N/A)200,000 .. 500,0000%00:00 (00:00)
32 Football Blitz Jan 4, 2017 N/AN/A (N/A)0 .. 20,0000%00:00 (00:00)
33 Frog Climbers Oct 6, 2016 $1.74N/A (N/A)20,000 .. 50,0000%00:00 (00:00)
34 Where are my Internets? Dec 16, 2016 $2.99N/A (N/A)50,000 .. 100,0000%00:00 (00:00)
35 Quantum Rush Champions Dec 4, 2014 $9.99N/A (N/A)20,000 .. 50,0000%00:00 (00:00)
36 Marble Duel Nov 12, 2015 $14.99N/A (N/A)50,000 .. 100,0000%00:00 (00:00)
37 This Starry Midnight We Make Jun 1, 2015 $9.99N/A (N/A)0 .. 20,0000%00:00 (00:00)
38 12 Labours of Hercules Mar 23, 2015 $2.99N/A (N/A)200,000 .. 500,0000%00:00 (00:00)
39 Laserlife Sep 22, 2015 $9.99N/A (N/A)20,000 .. 50,0000%00:00 (00:00)
40 Bob Was Hungry Aug 19, 2015 $9.99N/A (N/A)50,000 .. 100,0000%00:00 (00:00)
41 SinaRun Oct 26, 2015 $2.99N/A (N/A)20,000 .. 50,0000%00:00 (00:00)
42 Pixel Puzzles 2: Birds Feb 20, 2015 $9.99N/A (N/A)200,000 .. 500,0000%00:00 (00:00)
43 Sinister City Oct 18, 2014 $0.99N/A (N/A)200,000 .. 500,0000%00:00 (00:00)
44 Cute Things Dying Violently Sep 2, 2015 $2.99N/A (N/A)0 .. 20,0000%00:00 (00:00)
45 Vampires: Guide Them to Safety! Oct 22, 2014 $4.99N/A (N/A)0 .. 20,0000%00:00 (00:00)
46 GamersGoMakers Aug 8, 2014 $8.99N/A (N/A)20,000 .. 50,0000%00:00 (00:00)
47 The Jackbox Party Pack Nov 26, 2014 $12.49N/A (N/A)200,000 .. 500,0005%00:25 (00:08)
48 Bloop Reloaded Feb 6, 2015 FreeN/A (N/A)200,000 .. 500,0000%00:00 (00:00)
49 1931: Scheherazade at the Library of Pergamum Mar 26, 2015 $14.99N/A (N/A)20,000 .. 50,0000%00:00 (00:00)
50 A Good Snowman Is Hard To Build Feb 25, 2015 $9.99N/A (N/A)20,000 .. 50,0000%00:00 (00:00)
51 Steam and Metal Feb 9, 2015 $0.74N/A (N/A)0 .. 20,0000%00:00 (00:00)
52 iREC Jan 16, 2017 FreeN/A (N/A)50,000 .. 100,00014.29%04:18 (01:26)
53 Space Hotel Jan 4, 2017 $1.99N/A (N/A)0 .. 20,0000%00:00 (00:00)
54 FBI MANIA Jan 31, 2017 $0.99N/A (N/A)200,000 .. 500,0000%00:00 (00:00)
55 Idle Evolution Apr 3, 2017 $4.99N/A (N/A)0 .. 20,0000%00:00 (00:00)
56 Winexy Jan 13, 2017 $0.99N/A (N/A)50,000 .. 100,0000%00:00 (00:00)
57 GO AWAY, THERE'S KUMIS OVER THERE! Oct 28, 2016 $0.99N/A (N/A)50,000 .. 100,0000%00:00 (00:00)
58 Ninja Stealth 2 Jan 30, 2017 $0.99N/A (N/A)20,000 .. 50,0000%00:00 (00:00)
59 The Survey Oct 27, 2016 $4.99N/A (N/A)20,000 .. 50,0000%00:00 (00:00)
60 Western FPS Mar 13, 2017 $0.99N/A (N/A)200,000 .. 500,0000%00:00 (00:00)
61 Bunny & Piggy Dec 1, 2016 $0.99N/A (N/A)50,000 .. 100,0000%00:00 (00:00)
62 Think To Die 3 Mar 27, 2017 $4.99N/A (N/A)0 .. 20,0000%00:00 (00:00)
63 Neon Prism Nov 18, 2016 $4.99N/A (N/A)50,000 .. 100,0000%00:00 (00:00)
64 Terraform May 8, 2015 $2.99N/A (N/A)0 .. 20,0000%00:00 (00:00)
65 Beat Da Beat Mar 10, 2016 $1.99N/A (N/A)0 .. 20,00033.33%01:38 (00:32)
66 Chip's Challenge 2 May 28, 2015 $4.99N/A (N/A)20,000 .. 50,0000%00:00 (00:00)
67 Power of Love Jul 21, 2015 $0.49N/A (N/A)20,000 .. 50,0000%00:00 (00:00)
68 Pester Jan 25, 2013 $0.99N/A (N/A)100,000 .. 200,0000%00:00 (00:00)
69 Way of Gold and Steel Aug 17, 2015 $8.99N/A (N/A)20,000 .. 50,0000%00:00 (00:00)
70 Drizzlepath Mar 12, 2015 $1.99N/A (N/A)0 .. 20,0000%00:00 (00:00)
71 Industry Transporters Aug 31, 2015 $9.99N/A (N/A)0 .. 20,0000%00:00 (00:00)
72 Earthtongue Apr 27, 2015 $4.99N/A (N/A)50,000 .. 100,0000%00:00 (00:00)
73 Stay Alight Mar 2, 2015 $3.99N/A (N/A)50,000 .. 100,0000%00:00 (00:00)
74 The Reject Demon: Toko Chapter 0 — Prelude May 9, 2015 $4.99N/A (N/A)20,000 .. 50,0000%00:00 (00:00)
75 Astro Emporia Feb 2, 2015 $0.99N/A (N/A)20,000 .. 50,0000%00:00 (00:00)
76 Cursed Sight Aug 3, 2015 $4.99N/A (N/A)0 .. 20,0000%00:00 (00:00)
77 Streets of Chaos Jan 23, 2015 N/AN/A (N/A)100,000 .. 200,0000%00:00 (00:00)
78 MOAI 2: Path to Another World Apr 11, 2015 $7.99N/A (N/A)0 .. 20,0000%00:00 (00:00)
79 Racecraft Mar 4, 2016 FreeN/A (N/A)20,000 .. 50,0000%00:00 (00:00)
80 Egg Returns Home May 5, 2015 $0.99N/A (N/A)20,000 .. 50,0000%00:00 (00:00)
81 Job the Leprechaun Jul 31, 2015 $2.99N/A (N/A)20,000 .. 50,0000%00:00 (00:00)
82 Army of Pixels Oct 29, 2015 $4.99N/A (N/A)20,000 .. 50,0000%00:00 (00:00)
83 Wanda - A Beautiful Apocalypse Jun 3, 2016 $1.99N/A (N/A)100,000 .. 200,0000%00:00 (00:00)
84 The Deletion Jul 30, 2015 $1.99N/A (N/A)20,000 .. 50,0000%00:00 (00:00)
85 Psycho Starship Rampage Sep 28, 2015 $9.99N/A (N/A)0 .. 20,0000%00:00 (00:00)
86 Dance Magic Feb 15, 2016 $9.99N/A (N/A)0 .. 20,0000%00:00 (00:00)
87 Sentinel 4: Dark Star Aug 13, 2015 $6.99N/A (N/A)0 .. 20,0000%00:00 (00:00)
88 Tennis in the Face Nov 18, 2015 $4.99N/A (N/A)0 .. 20,0000%00:00 (00:00)
89 Asphyxia Aug 4, 2015 $5.99N/A (N/A)20,000 .. 50,0000%00:00 (00:00)
90 Space Drifters 2D Mar 28, 2016 $0.99N/A (N/A)20,000 .. 50,0000%00:00 (00:00)
91 Alpha Runner Sep 2, 2015 $0.99N/A (N/A)100,000 .. 200,0000%00:00 (00:00)
92 Fate Tectonics Sep 9, 2015 $0.49N/A (N/A)20,000 .. 50,0000%00:00 (00:00)
93 In Between Aug 21, 2015 $11.99N/A (N/A/68%)50,000 .. 100,0007.69%00:30 (00:10)
94 Koala Kids Jun 22, 2015 $1.99N/A (N/A)20,000 .. 50,0000%00:00 (00:00)
95 Robot vs Birds Zombies Jun 1, 2013 $0.99N/A (N/A)200,000 .. 500,0000%00:00 (00:00)
96 Star Chronicles: Delta Quadrant Jul 7, 2015 $0.99N/A (N/A)200,000 .. 500,0000%00:00 (00:00)
97 Collisions Jul 28, 2015 $3.99N/A (N/A)50,000 .. 100,0000%00:00 (00:00)
98 Lift It Jan 20, 2017 $4.99N/A (N/A)50,000 .. 100,0000%00:00 (00:00)
99 SquareCells Dec 7, 2015 $2.99N/A (N/A)50,000 .. 100,0000%00:00 (00:00)
100 Star Sky - ブルームーン Oct 23, 2015 $3.99N/A (N/A)0 .. 20,0000%00:00 (00:00)
101 Recursion Deluxe Feb 12, 2016 $4.99N/A (N/A)0 .. 20,0000%00:00 (00:00)
102 The Last NightMary - A Lenda do Cabeça de Cuia Nov 2, 2015 $3.99N/A (N/A)50,000 .. 100,0000%00:00 (00:00)
103 Goodnight Butcher Dec 18, 2015 $1.99N/A (N/A)0 .. 20,0000%00:00 (00:00)
104 Herding Dog Dec 25, 2015 $1.99N/A (N/A)0 .. 20,0000%00:00 (00:00)
105 Zipple World Jan 19, 2016 $4.99N/A (N/A)0 .. 20,0000%00:00 (00:00)
106 Swapperoo Dec 18, 2015 $4.99N/A (N/A)0 .. 20,0000%00:00 (00:00)
107 Backgammon Blitz Nov 12, 2015 $3.99N/A (N/A)20,000 .. 50,0000%00:00 (00:00)
108 Loot Hound Nov 17, 2015 $2.99N/A (N/A)0 .. 20,0000%00:00 (00:00)
109 12 Labours of Hercules IV: Mother Nature (Platinum Edition) Dec 25, 2015 $2.99N/A (N/A)20,000 .. 50,0000%00:00 (00:00)
110 Cyber Team Manager Jan 8, 2016 $4.99N/A (N/A)0 .. 20,0000%00:00 (00:00)
111 Without Within 2 Nov 9, 2015 $4.99N/A (N/A)0 .. 20,0000%00:00 (00:00)
112 BAD END Nov 25, 2015 $2.99N/A (N/A)0 .. 20,0000%00:00 (00:00)
113 Anode Oct 5, 2015 $3.99N/A (N/A)20,000 .. 50,0000%00:00 (00:00)
114 Rescue Team 5 Sep 30, 2015 $3.99N/A (N/A)20,000 .. 50,0000%00:00 (00:00)
115 Tribloos 2 Jan 12, 2013 $4.99N/A (N/A)100,000 .. 200,0000%00:00 (00:00)
116 Highborn Feb 19, 2013 $1.99N/A (N/A)0 .. 20,0000%00:00 (00:00)
117 On Rusty Trails Jun 13, 2016 $12.99N/A (N/A/77%)20,000 .. 50,0000%00:00 (00:00)
118 Oozi: Earth Adventure Dec 5, 2013 $4.99N/A (N/A/66%)50,000 .. 100,0000%00:00 (00:00)
119 Rage Runner May 16, 2014 $4.99N/A (N/A)0 .. 20,0000%00:00 (00:00)
120 Particulars Nov 19, 2014 $5.99N/A (N/A/74%)20,000 .. 50,0000%00:00 (00:00)
121 European Ship Simulator Nov 4, 2016 $19.99N/A (N/A)50,000 .. 100,0000%00:00 (00:00)
122 Dead Man's Draw Feb 6, 2014 $6.99N/A (N/A)20,000 .. 50,0000%00:00 (00:00)
123 Cyto Jul 10, 2014 $3.99N/A (N/A)20,000 .. 50,0000%00:00 (00:00)
124 Girls Like Robots Feb 14, 2014 $6.99N/A (N/A)100,000 .. 200,0000%00:00 (00:00)
125 Thrillville: Off the Rails Jul 8, 2009 $9.99N/A (N/A/70%)20,000 .. 50,0000%00:00 (00:00)
126 Farm for your Life Jun 5, 2013 $9.99N/A (N/A)50,000 .. 100,0000%00:00 (00:00)
127 Axel & Pixel Oct 6, 2010 $4.99N/A (N/A)20,000 .. 50,0000%00:00 (00:00)
128 Grapple Mar 9, 2015 $6.99N/A (N/A)20,000 .. 50,0000%00:00 (00:00)
129 Governor of Poker 2 - Premium Edition Oct 11, 2010 $14.99N/A (N/A)20,000 .. 50,0000%00:00 (00:00)
130 Paranormal State: Poison Spring Nov 26, 2013 $9.99N/A (N/A)50,000 .. 100,0000%00:00 (00:00)
131 Luxor Evolved Mar 1, 2012 $9.99N/A (N/A)50,000 .. 100,0000%00:00 (00:00)

Tags over time:

Access restricted.

This feature is only available to users with special access rights. Sorry.

If you want to proceed, you need to register or log in first and then back Steam Spy on Patreon. Look for Indie or Pro pledge.

Don't forget to use the same email as on Steam Spy!

Owners of this game also own:

Access restricted.

This feature is only available to users with special access rights. Sorry.

If you want to proceed, you need to register or log in first and then back Steam Spy on Patreon. Look for Indie or Pro pledge.

Don't forget to use the same email as on Steam Spy!

Playtime distribution:

Access restricted.

This feature is only available to users with special access rights. Sorry.

If you want to proceed, you need to register or log in first and then back Steam Spy on Patreon. Look for Indie or Pro pledge.

Don't forget to use the same email as on Steam Spy!

Playtime (2 weeks):

Access restricted.

This feature is only available to users with special access rights. Sorry.

If you want to proceed, you need to register or log in first and then back Steam Spy on Patreon. Look for Indie or Pro pledge.

Don't forget to use the same email as on Steam Spy!

User reviews:

Login required.

Please register or log in to see this information.